Ashfield, Pennsylvania
Current Conditions -  °F | °C
As of 3:51 AM on Thursday 23 Oct 2014 (Local Time) from KABE Reporting Station
Light Rain Light Rain  
Wind Chill: 11°   Ceiling: 4000
Heat Index: 11°   Visibility: 10mi
Dew Point:   Wind: 15mph
Humidity: 71%   Direction: 340°NNW
Pressure: 29.79"   Gusts: NA
Location:  40.78°N, 75.71°W
Report Text: KABE 230751Z 34013KT 10SM -RA OVC040 11/06 A2979 RMK AO2 RAB42 SLP089 P0000 T01110061
Loading
Personal Weather Stations






























Interactive Weather Map
Tropical Storm Tracking
New forecast layout! Learn more

10-Day Weather Forecast

Advertisements
Track Severe Weather on mobile